Погода Забавкана неделю

Подляское воеводство, Польша

15 - 21 июля
  • 15июля
    Сегодня
    +17°
    +28°
    Ясно и безоблачно
    ВремяПогодаТемператураВлажностьДавлениеВетер, м/сВероятность осадков
    02:00Облачно с прояснениями+16°C86 %753 мм1.7 м/с2 %
    05:00Облачно с прояснениями+16°C93 %753 мм1.7 м/с2 %
    08:00Небольшая облачность, ливень+19°C89 %753 мм1.3 м/с33 %
    11:00Небольшая облачность+23°C73 %753 мм0.3 м/с35 %
    14:00Ясно и безоблачно+26°C62 %753 мм0.9 м/с11 %
    17:00Ясно и безоблачно+28°C55 %753 мм1.3 м/с1 %
    20:00Ясно и безоблачно+25°C70 %753 мм0.7 м/с2 %
    23:00Ясно и безоблачно+20°C83 %753 мм1.7 м/с2 %
  • 16июля
    Вторник
    +19°
    +32°
    Практически безоблачно
    ВремяПогодаТемператураВлажностьДавлениеВетер, м/сВероятность осадков
    02:00Облачно с прояснениями+18°C87 %753 мм1.9 м/с2 %
    05:00Ясно и безоблачно+18°C91 %753 мм2.5 м/с2 %
    08:00Ясно и безоблачно+24°C73 %753 мм2.6 м/с2 %
    11:00Ясно и безоблачно+29°C51 %752 мм3.5 м/с1 %
    14:00Практически безоблачно+30°C46 %752 мм3.6 м/с4 %
    17:00Практически безоблачно+32°C43 %751 мм3.3 м/с4 %
    20:00Облачно с прояснениями+29°C54 %750 мм3.1 м/с21 %
    23:00Облачно с прояснениями+22°C86 %751 мм2.6 м/с30 %
  • 17июля
    Среда
    +16°
    +29°
    Ясно и безоблачно
    ВремяПогодаТемператураВлажностьДавлениеВетер, м/сВероятность осадков
    02:00Облачно с прояснениями+21°C95 %751 мм2.3 м/с46 %
    05:00Облачно с прояснениями+19°C96 %752 мм3.0 м/с45 %
    08:00Облачно с прояснениями+22°C84 %753 мм4.5 м/с8 %
    11:00Ясно и безоблачно+26°C59 %754 мм4.4 м/с8 %
    14:00Ясно и безоблачно+28°C45 %754 мм5.3 м/с2 %
    17:00Ясно и безоблачно+28°C42 %754 мм4.8 м/с2 %
    20:00Ясно и безоблачно+25°C54 %755 мм2.8 м/с2 %
    23:00Ясно и безоблачно+20°C66 %756 мм2.1 м/с3 %
  • 18июля
    Четверг
    +13°
    +27°
    Небольшая облачность
    ВремяПогодаТемператураВлажностьДавлениеВетер, м/сВероятность осадков
    02:00Практически безоблачно+18°C88 %756 мм1.8 м/с2 %
    05:00Практически безоблачно+16°C95 %756 мм1.9 м/с3 %
    08:00Ясно и безоблачно+20°C69 %757 мм2.8 м/с4 %
    11:00Практически безоблачно+24°C51 %757 мм4.6 м/с11 %
    14:00Небольшая облачность+25°C41 %757 мм4.8 м/с8 %
    17:00Практически безоблачно+26°C36 %756 мм4.7 м/с2 %
    20:00Небольшая облачность+23°C52 %757 мм3.2 м/с2 %
    23:00Ясно и безоблачно+18°C68 %757 мм2.0 м/с2 %
  • 19июля
    Пятница
    +12°
    +25°
    Облачно с прояснениями
    ВремяПогодаТемператураВлажностьДавлениеВетер, м/сВероятность осадков
    02:00Ясно и безоблачно+15°C84 %757 мм2.3 м/с2 %
    05:00Облачно с прояснениями+14°C92 %757 мм1.5 м/с2 %
    08:00Облачно с прояснениями+20°C66 %757 мм1.8 м/с2 %
    11:00Облачно с прояснениями+23°C52 %757 мм4.7 м/с6 %
    14:00Облачно с прояснениями+24°C44 %756 мм4.8 м/с8 %
    17:00Облачно с прояснениями+25°C41 %755 мм4.2 м/с7 %
    20:00Облачно с прояснениями+22°C56 %755 мм2.2 м/с2 %
    23:00Ясно и безоблачно+16°C71 %755 мм2.2 м/с2 %
Мы используем cookies
Соглашаюсь